sensor_id;sensor_type;location;lat;lon;timestamp;pressure;altitude;pressure_sealevel;temperature
45034;BMP280;30771;47.988;-4.186;2023-07-29T06:02:18;98237.16;;;17.31
45034;BMP280;30771;47.988;-4.186;2023-07-29T06:04:44;98234.41;;;17.36
45034;BMP280;30771;47.988;-4.186;2023-07-29T06:07:09;98233.53;;;17.41
45034;BMP280;30771;47.988;-4.186;2023-07-29T06:09:34;98241.53;;;17.49
45034;BMP280;30771;47.988;-4.186;2023-07-29T06:12:00;98242.91;;;17.60
45034;BMP280;30771;47.988;-4.186;2023-07-29T06:14:25;98245.56;;;17.60
45034;BMP280;30771;47.988;-4.186;2023-07-29T06:16:51;98246.66;;;17.68
45034;BMP280;30771;47.988;-4.186;2023-07-29T06:19:16;98248.44;;;17.72
45034;BMP280;30771;47.988;-4.186;2023-07-29T06:21:42;98257.59;;;17.80
45034;BMP280;30771;47.988;-4.186;2023-07-29T06:24:07;98257.63;;;17.88
45034;BMP280;30771;47.988;-4.186;2023-07-29T06:26:32;98255.78;;;17.97
45034;BMP280;30771;47.988;-4.186;2023-07-29T06:28:57;98245.56;;;17.91
45034;BMP280;30771;47.988;-4.186;2023-07-29T06:31:23;98265.25;;;18.03
45034;BMP280;30771;47.988;-4.186;2023-07-29T06:33:48;98271.38;;;18.12
45034;BMP280;30771;47.988;-4.186;2023-07-29T06:36:13;98270.47;;;18.17
45034;BMP280;30771;47.988;-4.186;2023-07-29T06:38:39;98272.88;;;18.27
45034;BMP280;30771;47.988;-4.186;2023-07-29T06:41:04;98268.81;;;18.29
45034;BMP280;30771;47.988;-4.186;2023-07-29T06:43:30;98269.28;;;18.31
45034;BMP280;30771;47.988;-4.186;2023-07-29T06:45:55;98268.84;;;18.38
45034;BMP280;30771;47.988;-4.186;2023-07-29T06:48:20;98270.44;;;18.48
45034;BMP280;30771;47.988;-4.186;2023-07-29T06:50:46;98286.78;;;18.55
45034;BMP280;30771;47.988;-4.186;2023-07-29T06:53:11;98287.72;;;18.59
45034;BMP280;30771;47.988;-4.186;2023-07-29T06:55:36;98295.44;;;18.60
45034;BMP280;30771;47.988;-4.186;2023-07-29T06:58:01;98311.72;;;18.59
45034;BMP280;30771;47.988;-4.186;2023-07-29T07:00:27;98312.78;;;18.49
45034;BMP280;30771;47.988;-4.186;2023-07-29T07:02:52;98330.88;;;18.61
45034;BMP280;30771;47.988;-4.186;2023-07-29T07:05:17;98325.91;;;18.76
45034;BMP280;30771;47.988;-4.186;2023-07-29T07:07:42;98330.31;;;18.81
45034;BMP280;30771;47.988;-4.186;2023-07-29T07:10:08;98333.00;;;18.98
45034;BMP280;30771;47.988;-4.186;2023-07-29T07:12:33;98323.78;;;19.12
45034;BMP280;30771;47.988;-4.186;2023-07-29T07:15:00;98320.38;;;19.29
45034;BMP280;30771;47.988;-4.186;2023-07-29T07:17:25;98303.72;;;19.32
45034;BMP280;30771;47.988;-4.186;2023-07-29T07:19:50;98307.97;;;19.33
45034;BMP280;30771;47.988;-4.186;2023-07-29T07:22:16;98321.28;;;19.41
45034;BMP280;30771;47.988;-4.186;2023-07-29T07:24:41;98324.63;;;19.47
45034;BMP280;30771;47.988;-4.186;2023-07-29T07:27:06;98322.44;;;19.49
45034;BMP280;30771;47.988;-4.186;2023-07-29T07:29:31;98309.84;;;19.58
45034;BMP280;30771;47.988;-4.186;2023-07-29T07:31:57;98314.72;;;19.81
45034;BMP280;30771;47.988;-4.186;2023-07-29T07:34:22;98300.84;;;19.97
45034;BMP280;30771;47.988;-4.186;2023-07-29T07:36:48;98271.00;;;19.95
45034;BMP280;30771;47.988;-4.186;2023-07-29T07:39:14;98278.50;;;20.10
45034;BMP280;30771;47.988;-4.186;2023-07-29T07:41:40;98255.38;;;20.05
45034;BMP280;30771;47.988;-4.186;2023-07-29T07:44:05;98253.59;;;20.26
45034;BMP280;30771;47.988;-4.186;2023-07-29T07:46:31;98236.25;;;20.41
45034;BMP280;30771;47.988;-4.186;2023-07-29T07:48:56;98218.44;;;20.45
45034;BMP280;30771;47.988;-4.186;2023-07-29T07:51:21;98197.03;;;20.53
45034;BMP280;30771;47.988;-4.186;2023-07-29T07:53:47;98163.88;;;20.66
45034;BMP280;30771;47.988;-4.186;2023-07-29T07:56:13;98134.75;;;20.73
45034;BMP280;30771;47.988;-4.186;2023-07-29T07:58:38;98105.56;;;20.80
45034;BMP280;30771;47.988;-4.186;2023-07-29T08:01:04;98074.38;;;20.84
45034;BMP280;30771;47.988;-4.186;2023-07-29T08:03:30;98035.03;;;20.85
45034;BMP280;30771;47.988;-4.186;2023-07-29T08:05:56;98012.97;;;20.88
45034;BMP280;30771;47.988;-4.186;2023-07-29T08:08:21;97994.81;;;20.93
45034;BMP280;30771;47.988;-4.186;2023-07-29T08:10:46;97979.34;;;20.99
45034;BMP280;30771;47.988;-4.186;2023-07-29T08:13:13;97959.84;;;20.98
45034;BMP280;30771;47.988;-4.186;2023-07-29T08:15:38;97948.13;;;21.03
45034;BMP280;30771;47.988;-4.186;2023-07-29T08:18:04;97943.56;;;21.15
45034;BMP280;30771;47.988;-4.186;2023-07-29T08:20:29;97932.88;;;21.15
45034;BMP280;30771;47.988;-4.186;2023-07-29T08:22:54;97908.25;;;21.10
45034;BMP280;30771;47.988;-4.186;2023-07-29T08:25:19;97890.41;;;21.02
45034;BMP280;30771;47.988;-4.186;2023-07-29T08:27:45;97891.59;;;21.16
45034;BMP280;30771;47.988;-4.186;2023-07-29T08:30:10;97851.72;;;21.11
45034;BMP280;30771;47.988;-4.186;2023-07-29T08:32:35;97828.97;;;21.05
45034;BMP280;30771;47.988;-4.186;2023-07-29T08:35:01;97829.75;;;21.06
45034;BMP280;30771;47.988;-4.186;2023-07-29T08:37:26;97819.03;;;21.06
45034;BMP280;30771;47.988;-4.186;2023-07-29T08:39:51;97805.97;;;21.16
45034;BMP280;30771;47.988;-4.186;2023-07-29T08:42:17;97789.41;;;21.38
45034;BMP280;30771;47.988;-4.186;2023-07-29T08:44:44;97773.53;;;21.45
45034;BMP280;30771;47.988;-4.186;2023-07-29T08:47:11;97749.13;;;21.47
45034;BMP280;30771;47.988;-4.186;2023-07-29T08:49:37;97763.84;;;21.68
45034;BMP280;30771;47.988;-4.186;2023-07-29T08:52:04;97731.94;;;21.79
45034;BMP280;30771;47.988;-4.186;2023-07-29T08:54:30;97680.13;;;22.03
45034;BMP280;30771;47.988;-4.186;2023-07-29T08:56:55;97628.47;;;22.21
45034;BMP280;30771;47.988;-4.186;2023-07-29T08:59:21;97591.78;;;22.25
45034;BMP280;30771;47.988;-4.186;2023-07-29T09:01:47;97572.88;;;22.18
45034;BMP280;30771;47.988;-4.186;2023-07-29T09:04:12;97554.00;;;22.11
45034;BMP280;30771;47.988;-4.186;2023-07-29T09:06:39;97552.44;;;22.10
45034;BMP280;30771;47.988;-4.186;2023-07-29T09:09:04;97555.84;;;21.92
45034;BMP280;30771;47.988;-4.186;2023-07-29T09:11:30;97539.22;;;21.67
45034;BMP280;30771;47.988;-4.186;2023-07-29T09:13:56;97560.34;;;21.53
45034;BMP280;30771;47.988;-4.186;2023-07-29T09:16:22;97594.91;;;21.58
45034;BMP280;30771;47.988;-4.186;2023-07-29T09:18:48;97567.16;;;21.50
45034;BMP280;30771;47.988;-4.186;2023-07-29T09:21:15;97578.72;;;21.54
45034;BMP280;30771;47.988;-4.186;2023-07-29T09:23:41;97566.13;;;21.71
45034;BMP280;30771;47.988;-4.186;2023-07-29T09:26:07;97537.50;;;21.75
45034;BMP280;30771;47.988;-4.186;2023-07-29T09:28:35;97536.38;;;21.76
45034;BMP280;30771;47.988;-4.186;2023-07-29T09:31:01;97549.06;;;21.79
45034;BMP280;30771;47.988;-4.186;2023-07-29T09:33:26;97553.66;;;21.78
45034;BMP280;30771;47.988;-4.186;2023-07-29T09:35:52;97554.34;;;21.75
45034;BMP280;30771;47.988;-4.186;2023-07-29T09:38:17;97544.97;;;21.65
45034;BMP280;30771;47.988;-4.186;2023-07-29T09:40:42;97558.50;;;21.73
45034;BMP280;30771;47.988;-4.186;2023-07-29T09:43:09;97550.28;;;21.81
45034;BMP280;30771;47.988;-4.186;2023-07-29T09:45:36;97513.69;;;21.89
45034;BMP280;30771;47.988;-4.186;2023-07-29T09:48:02;97492.63;;;21.87
45034;BMP280;30771;47.988;-4.186;2023-07-29T09:50:28;97484.09;;;21.82
45034;BMP280;30771;47.988;-4.186;2023-07-29T09:52:55;97471.31;;;21.75
45034;BMP280;30771;47.988;-4.186;2023-07-29T09:55:22;97470.28;;;21.80
45034;BMP280;30771;47.988;-4.186;2023-07-29T09:57:48;97451.25;;;21.85
45034;BMP280;30771;47.988;-4.186;2023-07-29T10:00:13;97436.75;;;21.86
45034;BMP280;30771;47.988;-4.186;2023-07-29T10:02:40;97444.78;;;21.86
45034;BMP280;30771;47.988;-4.186;2023-07-29T10:05:06;97449.50;;;21.92
45034;BMP280;30771;47.988;-4.186;2023-07-29T10:07:33;97422.47;;;22.01
45034;BMP280;30771;47.988;-4.186;2023-07-29T10:09:59;97390.34;;;22.20
45034;BMP280;30771;47.988;-4.186;2023-07-29T10:12:27;97363.75;;;22.34
45034;BMP280;30771;47.988;-4.186;2023-07-29T10:14:53;97349.34;;;22.42
45034;BMP280;30771;47.988;-4.186;2023-07-29T10:17:20;97348.88;;;22.36
45034;BMP280;30771;47.988;-4.186;2023-07-29T10:19:46;97353.72;;;22.27
45034;BMP280;30771;47.988;-4.186;2023-07-29T10:22:13;97359.63;;;22.17
45034;BMP280;30771;47.988;-4.186;2023-07-29T10:24:42;97379.81;;;22.11
45034;BMP280;30771;47.988;-4.186;2023-07-29T10:27:11;97397.03;;;22.10
45034;BMP280;30771;47.988;-4.186;2023-07-29T10:29:38;97414.88;;;22.03
45034;BMP280;30771;47.988;-4.186;2023-07-29T10:32:09;97438.66;;;21.85
45034;BMP280;30771;47.988;-4.186;2023-07-29T10:34:36;97485.13;;;21.58
45034;BMP280;30771;47.988;-4.186;2023-07-29T10:37:01;97572.69;;;21.26
45034;BMP280;30771;47.988;-4.186;2023-07-29T10:39:27;97615.81;;;20.54
45034;BMP280;30771;47.988;-4.186;2023-07-29T10:42:00;97712.94;;;19.98
45034;BMP280;30771;47.988;-4.186;2023-07-29T10:47:17;97924.66;;;19.37
45034;BMP280;30771;47.988;-4.186;2023-07-29T10:49:43;98016.38;;;19.24
45034;BMP280;30771;47.988;-4.186;2023-07-29T10:52:13;98084.97;;;19.15
45034;BMP280;30771;47.988;-4.186;2023-07-29T10:54:47;98140.84;;;19.03
45034;BMP280;30771;47.988;-4.186;2023-07-29T10:57:14;98184.59;;;18.93
45034;BMP280;30771;47.988;-4.186;2023-07-29T10:59:39;98225.25;;;18.90
45034;BMP280;30771;47.988;-4.186;2023-07-29T11:02:15;98256.47;;;18.90
45034;BMP280;30771;47.988;-4.186;2023-07-29T11:04:50;98285.50;;;18.91
45034;BMP280;30771;47.988;-4.186;2023-07-29T11:17:37;98418.56;;;18.49
45034;BMP280;30771;47.988;-4.186;2023-07-29T11:20:04;98444.13;;;18.41
45034;BMP280;30771;47.988;-4.186;2023-07-29T11:22:30;98469.28;;;18.35
45034;BMP280;30771;47.988;-4.186;2023-07-29T11:24:56;98485.63;;;18.42
45034;BMP280;30771;47.988;-4.186;2023-07-29T11:27:21;98509.72;;;18.51
45034;BMP280;30771;47.988;-4.186;2023-07-29T11:29:47;98510.16;;;18.53
45034;BMP280;30771;47.988;-4.186;2023-07-29T11:32:12;98503.00;;;18.40
45034;BMP280;30771;47.988;-4.186;2023-07-29T11:34:38;98509.06;;;18.31
45034;BMP280;30771;47.988;-4.186;2023-07-29T11:37:03;98513.34;;;18.19
45034;BMP280;30771;47.988;-4.186;2023-07-29T11:39:29;98509.13;;;18.04
45034;BMP280;30771;47.988;-4.186;2023-07-29T11:41:54;98526.78;;;18.14
45034;BMP280;30771;47.988;-4.186;2023-07-29T11:44:19;98524.75;;;18.19
45034;BMP280;30771;47.988;-4.186;2023-07-29T11:46:45;98516.28;;;18.31
45034;BMP280;30771;47.988;-4.186;2023-07-29T11:49:10;98513.78;;;18.57
45034;BMP280;30771;47.988;-4.186;2023-07-29T11:51:38;98490.47;;;18.62
45034;BMP280;30771;47.988;-4.186;2023-07-29T11:54:06;98473.13;;;18.65
45034;BMP280;30771;47.988;-4.186;2023-07-29T11:56:32;98457.13;;;18.65
45034;BMP280;30771;47.988;-4.186;2023-07-29T11:58:57;98451.81;;;18.73
45034;BMP280;30771;47.988;-4.186;2023-07-29T12:01:23;98449.53;;;18.89
45034;BMP280;30771;47.988;-4.186;2023-07-29T12:03:50;98446.63;;;18.99
45034;BMP280;30771;47.988;-4.186;2023-07-29T12:06:15;98447.22;;;18.96
45034;BMP280;30771;47.988;-4.186;2023-07-29T12:08:42;98429.00;;;18.89
45034;BMP280;30771;47.988;-4.186;2023-07-29T12:11:08;98429.16;;;18.93
45034;BMP280;30771;47.988;-4.186;2023-07-29T12:13:33;98430.63;;;18.99
45034;BMP280;30771;47.988;-4.186;2023-07-29T12:16:01;98432.66;;;19.02
45034;BMP280;30771;47.988;-4.186;2023-07-29T12:18:31;98428.88;;;19.03
45034;BMP280;30771;47.988;-4.186;2023-07-29T12:20:57;98411.50;;;19.05
45034;BMP280;30771;47.988;-4.186;2023-07-29T12:23:25;98403.34;;;19.10
45034;BMP280;30771;47.988;-4.186;2023-07-29T12:25:51;98399.13;;;19.09
45034;BMP280;30771;47.988;-4.186;2023-07-29T12:28:16;98407.28;;;19.13
45034;BMP280;30771;47.988;-4.186;2023-07-29T12:30:42;98408.56;;;19.24
45034;BMP280;30771;47.988;-4.186;2023-07-29T12:33:08;98421.28;;;19.27
45034;BMP280;30771;47.988;-4.186;2023-07-29T12:35:37;98418.00;;;19.30
45034;BMP280;30771;47.988;-4.186;2023-07-29T12:38:02;98402.91;;;19.25
45034;BMP280;30771;47.988;-4.186;2023-07-29T12:40:28;98395.44;;;19.44
45034;BMP280;30771;47.988;-4.186;2023-07-29T12:42:54;98383.19;;;19.69
45034;BMP280;30771;47.988;-4.186;2023-07-29T12:45:19;98333.41;;;19.90
45034;BMP280;30771;47.988;-4.186;2023-07-29T12:47:45;98274.38;;;20.21
45034;BMP280;30771;47.988;-4.186;2023-07-29T12:50:10;98187.59;;;20.47
45034;BMP280;30771;47.988;-4.186;2023-07-29T12:52:36;98113.03;;;20.75
45034;BMP280;30771;47.988;-4.186;2023-07-29T12:55:01;98006.53;;;21.01
45034;BMP280;30771;47.988;-4.186;2023-07-29T12:57:26;97907.44;;;21.21
45034;BMP280;30771;47.988;-4.186;2023-07-29T12:59:52;97781.66;;;21.21
45034;BMP280;30771;47.988;-4.186;2023-07-29T13:02:17;97752.91;;;21.18
45034;BMP280;30771;47.988;-4.186;2023-07-29T13:04:42;97741.50;;;20.94
45034;BMP280;30771;47.988;-4.186;2023-07-29T13:07:07;97759.69;;;20.76
45034;BMP280;30771;47.988;-4.186;2023-07-29T13:09:33;97793.78;;;20.55
45034;BMP280;30771;47.988;-4.186;2023-07-29T13:11:58;97837.81;;;20.13
45034;BMP280;30771;47.988;-4.186;2023-07-29T13:14:23;97927.03;;;19.79
45034;BMP280;30771;47.988;-4.186;2023-07-29T13:16:48;98044.66;;;19.54
45034;BMP280;30771;47.988;-4.186;2023-07-29T13:19:14;98150.22;;;19.34
45034;BMP280;30771;47.988;-4.186;2023-07-29T13:21:39;98227.00;;;19.29
45034;BMP280;30771;47.988;-4.186;2023-07-29T13:24:04;98261.81;;;19.49
45034;BMP280;30771;47.988;-4.186;2023-07-29T13:26:29;98266.03;;;19.67
45034;BMP280;30771;47.988;-4.186;2023-07-29T13:28:55;98257.34;;;19.96
45034;BMP280;30771;47.988;-4.186;2023-07-29T13:31:20;98234.41;;;20.33
45034;BMP280;30771;47.988;-4.186;2023-07-29T13:33:45;98203.78;;;20.71
45034;BMP280;30771;47.988;-4.186;2023-07-29T13:36:10;98149.56;;;20.71
45034;BMP280;30771;47.988;-4.186;2023-07-29T13:38:36;98074.09;;;20.45
45034;BMP280;30771;47.988;-4.186;2023-07-29T13:41:01;98058.53;;;20.26
45034;BMP280;30771;47.988;-4.186;2023-07-29T13:43:26;98087.84;;;20.14
45034;BMP280;30771;47.988;-4.186;2023-07-29T13:45:51;98115.41;;;20.06
45034;BMP280;30771;47.988;-4.186;2023-07-29T13:48:17;98133.34;;;19.97
45034;BMP280;30771;47.988;-4.186;2023-07-29T13:50:43;98141.88;;;19.90
45034;BMP280;30771;47.988;-4.186;2023-07-29T13:53:08;98140.66;;;19.79
45034;BMP280;30771;47.988;-4.186;2023-07-29T13:55:33;98174.13;;;19.77
45034;BMP280;30771;47.988;-4.186;2023-07-29T13:57:58;98187.31;;;19.82
45034;BMP280;30771;47.988;-4.186;2023-07-29T14:00:24;98197.34;;;19.85
45034;BMP280;30771;47.988;-4.186;2023-07-29T14:02:49;98164.63;;;19.88
45034;BMP280;30771;47.988;-4.186;2023-07-29T14:05:14;98127.53;;;20.04
45034;BMP280;30771;47.988;-4.186;2023-07-29T14:07:40;98091.56;;;20.22
45034;BMP280;30771;47.988;-4.186;2023-07-29T14:10:05;98040.88;;;20.34
45034;BMP280;30771;47.988;-4.186;2023-07-29T14:12:31;97966.19;;;20.49
45034;BMP280;30771;47.988;-4.186;2023-07-29T14:14:56;97875.03;;;20.75
45034;BMP280;30771;47.988;-4.186;2023-07-29T14:17:21;97796.88;;;20.93
45034;BMP280;30771;47.988;-4.186;2023-07-29T14:19:46;97679.47;;;21.04
45034;BMP280;30771;47.988;-4.186;2023-07-29T14:22:12;97602.75;;;21.08
45034;BMP280;30771;47.988;-4.186;2023-07-29T14:24:37;97546.59;;;21.08
45034;BMP280;30771;47.988;-4.186;2023-07-29T14:27:03;97518.41;;;21.26
45034;BMP280;30771;47.988;-4.186;2023-07-29T14:29:28;97514.41;;;21.51
45034;BMP280;30771;47.988;-4.186;2023-07-29T14:31:53;97504.56;;;21.55
45034;BMP280;30771;47.988;-4.186;2023-07-29T14:34:19;97527.97;;;21.42
45034;BMP280;30771;47.988;-4.186;2023-07-29T14:36:44;97556.13;;;21.36
45034;BMP280;30771;47.988;-4.186;2023-07-29T14:39:09;97596.03;;;21.41
45034;BMP280;30771;47.988;-4.186;2023-07-29T14:41:34;97781.50;;;21.30
45034;BMP280;30771;47.988;-4.186;2023-07-29T14:44:00;97888.34;;;21.35
45034;BMP280;30771;47.988;-4.186;2023-07-29T14:46:25;98018.50;;;21.27
45034;BMP280;30771;47.988;-4.186;2023-07-29T14:48:50;97987.94;;;21.28
45034;BMP280;30771;47.988;-4.186;2023-07-29T14:51:16;97988.31;;;21.27
45034;BMP280;30771;47.988;-4.186;2023-07-29T14:53:41;97983.59;;;21.24
45034;BMP280;30771;47.988;-4.186;2023-07-29T14:56:06;97929.63;;;21.34
45034;BMP280;30771;47.988;-4.186;2023-07-29T14:58:32;97865.22;;;21.54
45034;BMP280;30771;47.988;-4.186;2023-07-29T15:00:57;97846.72;;;21.77
45034;BMP280;30771;47.988;-4.186;2023-07-29T15:03:25;97856.06;;;21.99
45034;BMP280;30771;47.988;-4.186;2023-07-29T15:05:50;98006.38;;;21.94
45034;BMP280;30771;47.988;-4.186;2023-07-29T15:08:16;98119.84;;;21.86
45034;BMP280;30771;47.988;-4.186;2023-07-29T15:10:45;98170.25;;;21.84
45034;BMP280;30771;47.988;-4.186;2023-07-29T15:13:10;98143.03;;;21.82
45034;BMP280;30771;47.988;-4.186;2023-07-29T15:15:36;98120.38;;;21.55
45034;BMP280;30771;47.988;-4.186;2023-07-29T15:18:01;98069.63;;;21.58
45034;BMP280;30771;47.988;-4.186;2023-07-29T15:20:26;97998.31;;;21.54
45034;BMP280;30771;47.988;-4.186;2023-07-29T15:22:52;97938.59;;;21.65
45034;BMP280;30771;47.988;-4.186;2023-07-29T15:25:17;98015.59;;;21.68
45034;BMP280;30771;47.988;-4.186;2023-07-29T15:27:42;98136.97;;;21.48
45034;BMP280;30771;47.988;-4.186;2023-07-29T15:30:08;98162.31;;;21.39
45034;BMP280;30771;47.988;-4.186;2023-07-29T15:32:33;98088.56;;;21.41
45034;BMP280;30771;47.988;-4.186;2023-07-29T15:34:58;97998.63;;;21.52
45034;BMP280;30771;47.988;-4.186;2023-07-29T15:37:27;97950.88;;;21.66
45034;BMP280;30771;47.988;-4.186;2023-07-29T15:39:52;97994.38;;;21.63
45034;BMP280;30771;47.988;-4.186;2023-07-29T15:42:17;98015.81;;;21.63
45034;BMP280;30771;47.988;-4.186;2023-07-29T15:44:43;98082.22;;;21.58
45034;BMP280;30771;47.988;-4.186;2023-07-29T15:47:08;98137.31;;;21.59
45034;BMP280;30771;47.988;-4.186;2023-07-29T15:49:33;98141.22;;;21.61
45034;BMP280;30771;47.988;-4.186;2023-07-29T15:51:59;98220.59;;;21.66
45034;BMP280;30771;47.988;-4.186;2023-07-29T15:54:24;98384.16;;;21.40
45034;BMP280;30771;47.988;-4.186;2023-07-29T15:56:49;98354.91;;;21.35
45034;BMP280;30771;47.988;-4.186;2023-07-29T15:59:14;98346.34;;;21.21
45034;BMP280;30771;47.988;-4.186;2023-07-29T16:01:40;98328.59;;;21.17
45034;BMP280;30771;47.988;-4.186;2023-07-29T16:04:05;98311.97;;;21.11
45034;BMP280;30771;47.988;-4.186;2023-07-29T16:06:30;98264.13;;;21.10
45034;BMP280;30771;47.988;-4.186;2023-07-29T16:08:55;98267.09;;;21.08
45034;BMP280;30771;47.988;-4.186;2023-07-29T16:11:21;98244.41;;;21.14
45034;BMP280;30771;47.988;-4.186;2023-07-29T16:13:46;98204.59;;;21.25
45034;BMP280;30771;47.988;-4.186;2023-07-29T16:16:12;98146.34;;;21.42
45034;BMP280;30771;47.988;-4.186;2023-07-29T16:18:37;98130.97;;;21.51
45034;BMP280;30771;47.988;-4.186;2023-07-29T16:21:02;98146.50;;;21.70
45034;BMP280;30771;47.988;-4.186;2023-07-29T16:23:28;98207.31;;;21.82
45034;BMP280;30771;47.988;-4.186;2023-07-29T16:25:54;98303.78;;;21.82
45034;BMP280;30771;47.988;-4.186;2023-07-29T16:28:19;98283.03;;;21.91
45034;BMP280;30771;47.988;-4.186;2023-07-29T16:30:45;98306.50;;;22.06
45034;BMP280;30771;47.988;-4.186;2023-07-29T16:33:10;98345.19;;;22.17
45034;BMP280;30771;47.988;-4.186;2023-07-29T16:35:35;98387.03;;;22.09
45034;BMP280;30771;47.988;-4.186;2023-07-29T16:38:00;98417.28;;;21.98
45034;BMP280;30771;47.988;-4.186;2023-07-29T16:40:26;98405.47;;;21.78
45034;BMP280;30771;47.988;-4.186;2023-07-29T16:42:51;98356.59;;;21.60
45034;BMP280;30771;47.988;-4.186;2023-07-29T16:45:17;98317.66;;;21.63
45034;BMP280;30771;47.988;-4.186;2023-07-29T16:47:42;98311.72;;;21.57
45034;BMP280;30771;47.988;-4.186;2023-07-29T16:50:08;98261.41;;;21.63
45034;BMP280;30771;47.988;-4.186;2023-07-29T16:52:33;98232.03;;;21.54
45034;BMP280;30771;47.988;-4.186;2023-07-29T16:54:58;98195.66;;;21.41
45034;BMP280;30771;47.988;-4.186;2023-07-29T16:57:24;98108.81;;;21.18
45034;BMP280;30771;47.988;-4.186;2023-07-29T16:59:49;98037.44;;;21.22
45034;BMP280;30771;47.988;-4.186;2023-07-29T17:02:14;98006.56;;;21.37
45034;BMP280;30771;47.988;-4.186;2023-07-29T17:04:39;98003.88;;;21.73
45034;BMP280;30771;47.988;-4.186;2023-07-29T17:07:05;98041.34;;;21.85
45034;BMP280;30771;47.988;-4.186;2023-07-29T17:09:30;98030.53;;;21.69
45034;BMP280;30771;47.988;-4.186;2023-07-29T17:11:56;97993.94;;;21.49
45034;BMP280;30771;47.988;-4.186;2023-07-29T17:14:21;97935.41;;;21.36
45034;BMP280;30771;47.988;-4.186;2023-07-29T17:16:46;97921.84;;;21.05
45034;BMP280;30771;47.988;-4.186;2023-07-29T17:19:12;97840.38;;;20.90
45034;BMP280;30771;47.988;-4.186;2023-07-29T17:21:37;97786.00;;;20.74
45034;BMP280;30771;47.988;-4.186;2023-07-29T17:24:02;97735.63;;;20.64
45034;BMP280;30771;47.988;-4.186;2023-07-29T17:26:27;97707.81;;;20.53
45034;BMP280;30771;47.988;-4.186;2023-07-29T17:28:53;97696.69;;;20.51
45034;BMP280;30771;47.988;-4.186;2023-07-29T17:31:18;97701.81;;;20.32
45034;BMP280;30771;47.988;-4.186;2023-07-29T17:33:43;97692.91;;;20.28
45034;BMP280;30771;47.988;-4.186;2023-07-29T17:36:09;97629.69;;;20.20
45034;BMP280;30771;47.988;-4.186;2023-07-29T17:38:34;97612.88;;;20.20
45034;BMP280;30771;47.988;-4.186;2023-07-29T17:40:59;97592.72;;;20.10
45034;BMP280;30771;47.988;-4.186;2023-07-29T17:43:37;97519.84;;;20.10
45034;BMP280;30771;47.988;-4.186;2023-07-29T17:46:02;97532.44;;;20.09
45034;BMP280;30771;47.988;-4.186;2023-07-29T17:48:28;97532.22;;;20.02
45034;BMP280;30771;47.988;-4.186;2023-07-29T17:50:53;97538.59;;;19.98
45034;BMP280;30771;47.988;-4.186;2023-07-29T17:53:18;97541.81;;;19.91
45034;BMP280;30771;47.988;-4.186;2023-07-29T17:55:43;97552.25;;;19.84
45034;BMP280;30771;47.988;-4.186;2023-07-29T17:58:09;97549.38;;;19.77
45034;BMP280;30771;47.988;-4.186;2023-07-29T18:00:34;97564.41;;;19.81
45034;BMP280;30771;47.988;-4.186;2023-07-29T18:03:00;97574.75;;;19.83
45034;BMP280;30771;47.988;-4.186;2023-07-29T18:05:25;97576.50;;;20.03
45034;BMP280;30771;47.988;-4.186;2023-07-29T18:07:51;97586.25;;;20.35
45034;BMP280;30771;47.988;-4.186;2023-07-29T18:10:16;97625.41;;;20.43
45034;BMP280;30771;47.988;-4.186;2023-07-29T18:12:41;97636.56;;;20.45
45034;BMP280;30771;47.988;-4.186;2023-07-29T18:15:07;97652.03;;;20.40
45034;BMP280;30771;47.988;-4.186;2023-07-29T18:17:33;97650.59;;;20.30
45034;BMP280;30771;47.988;-4.186;2023-07-29T18:19:59;97645.47;;;20.13
45034;BMP280;30771;47.988;-4.186;2023-07-29T18:22:24;97645.28;;;20.06
45034;BMP280;30771;47.988;-4.186;2023-07-29T18:24:49;97632.13;;;20.01
45034;BMP280;30771;47.988;-4.186;2023-07-29T18:27:14;97618.34;;;19.99
45034;BMP280;30771;47.988;-4.186;2023-07-29T18:29:40;97617.25;;;20.00
45034;BMP280;30771;47.988;-4.186;2023-07-29T18:32:05;97620.81;;;20.04
45034;BMP280;30771;47.988;-4.186;2023-07-29T18:34:30;97631.25;;;19.97
45034;BMP280;30771;47.988;-4.186;2023-07-29T18:36:56;97646.75;;;19.92
45034;BMP280;30771;47.988;-4.186;2023-07-29T18:39:21;97661.59;;;19.80
45034;BMP280;30771;47.988;-4.186;2023-07-29T18:41:46;97672.53;;;19.75
45034;BMP280;30771;47.988;-4.186;2023-07-29T18:44:12;97675.63;;;19.65
45034;BMP280;30771;47.988;-4.186;2023-07-29T18:46:37;97685.72;;;19.60
45034;BMP280;30771;47.988;-4.186;2023-07-29T18:49:02;97688.97;;;19.53
45034;BMP280;30771;47.988;-4.186;2023-07-29T18:51:27;97689.47;;;19.47
45034;BMP280;30771;47.988;-4.186;2023-07-29T18:53:53;97674.41;;;19.30
45034;BMP280;30771;47.988;-4.186;2023-07-29T18:56:18;97679.81;;;19.22
45034;BMP280;30771;47.988;-4.186;2023-07-29T18:58:43;97695.72;;;19.18
45034;BMP280;30771;47.988;-4.186;2023-07-29T19:01:08;97693.88;;;19.10
45034;BMP280;30771;47.988;-4.186;2023-07-29T19:03:34;97686.59;;;18.99
45034;BMP280;30771;47.988;-4.186;2023-07-29T19:06:00;97699.53;;;18.88
45034;BMP280;30771;47.988;-4.186;2023-07-29T19:08:25;97710.59;;;18.78
45034;BMP280;30771;47.988;-4.186;2023-07-29T19:10:50;97716.09;;;18.73
45034;BMP280;30771;47.988;-4.186;2023-07-29T19:13:15;97730.53;;;18.72
45034;BMP280;30771;47.988;-4.186;2023-07-29T19:15:41;97732.16;;;18.65
45034;BMP280;30771;47.988;-4.186;2023-07-29T19:18:06;97750.81;;;18.65
45034;BMP280;30771;47.988;-4.186;2023-07-29T19:20:31;97765.13;;;18.60
45034;BMP280;30771;47.988;-4.186;2023-07-29T19:22:56;97777.19;;;18.58
45034;BMP280;30771;47.988;-4.186;2023-07-29T19:25:22;97789.56;;;18.54
45034;BMP280;30771;47.988;-4.186;2023-07-29T19:27:47;97812.16;;;18.48
45034;BMP280;30771;47.988;-4.186;2023-07-29T19:30:12;97824.09;;;18.42
45034;BMP280;30771;47.988;-4.186;2023-07-29T19:32:37;97836.47;;;18.38
45034;BMP280;30771;47.988;-4.186;2023-07-29T19:35:03;97867.53;;;18.33
45034;BMP280;30771;47.988;-4.186;2023-07-29T19:37:28;97890.09;;;18.27
45034;BMP280;30771;47.988;-4.186;2023-07-29T19:39:53;97926.47;;;18.23
45034;BMP280;30771;47.988;-4.186;2023-07-29T19:42:19;97954.78;;;18.19
45034;BMP280;30771;47.988;-4.186;2023-07-29T19:44:44;97971.56;;;18.11
45034;BMP280;30771;47.988;-4.186;2023-07-29T19:47:09;97991.91;;;18.07
45034;BMP280;30771;47.988;-4.186;2023-07-29T19:49:35;98021.22;;;18.07
45034;BMP280;30771;47.988;-4.186;2023-07-29T19:52:00;98055.81;;;17.99
45034;BMP280;30771;47.988;-4.186;2023-07-29T19:54:26;98081.97;;;17.97
45034;BMP280;30771;47.988;-4.186;2023-07-29T19:56:51;98102.16;;;17.89
45034;BMP280;30771;47.988;-4.186;2023-07-29T19:59:16;98137.34;;;17.86
45034;BMP280;30771;47.988;-4.186;2023-07-29T20:01:41;98161.44;;;17.81